sensor_id;sensor_type;location;lat;lon;timestamp;P1;durP1;ratioP1;P2;durP2;ratioP2
74789;SDS011;63318;52.406;13.416;2022-12-18T00:01:21;21.10;;;7.40;;
74789;SDS011;63318;52.406;13.416;2022-12-18T00:03:50;25.00;;;8.50;;
74789;SDS011;63318;52.406;13.416;2022-12-18T00:06:20;21.00;;;7.70;;
74789;SDS011;63318;52.406;13.416;2022-12-18T00:08:49;29.70;;;9.50;;
74789;SDS011;63318;52.406;13.416;2022-12-18T00:11:19;27.30;;;8.20;;
74789;SDS011;63318;52.406;13.416;2022-12-18T00:13:49;18.00;;;6.30;;
74789;SDS011;63318;52.406;13.416;2022-12-18T00:16:20;19.30;;;7.40;;
74789;SDS011;63318;52.406;13.416;2022-12-18T00:18:51;18.90;;;6.40;;
74789;SDS011;63318;52.406;13.416;2022-12-18T00:21:20;23.60;;;7.60;;
74789;SDS011;63318;52.406;13.416;2022-12-18T00:23:49;26.20;;;8.70;;
74789;SDS011;63318;52.406;13.416;2022-12-18T00:26:18;25.90;;;9.00;;
74789;SDS011;63318;52.406;13.416;2022-12-18T00:28:48;31.00;;;8.90;;
74789;SDS011;63318;52.406;13.416;2022-12-18T00:31:18;28.30;;;9.30;;
74789;SDS011;63318;52.406;13.416;2022-12-18T00:33:49;28.10;;;9.30;;
74789;SDS011;63318;52.406;13.416;2022-12-18T00:36:18;27.10;;;10.40;;
74789;SDS011;63318;52.406;13.416;2022-12-18T00:38:48;27.20;;;9.00;;
74789;SDS011;63318;52.406;13.416;2022-12-18T00:41:17;27.40;;;9.80;;
74789;SDS011;63318;52.406;13.416;2022-12-18T00:43:45;35.90;;;11.20;;
74789;SDS011;63318;52.406;13.416;2022-12-18T00:46:13;30.40;;;9.70;;
74789;SDS011;63318;52.406;13.416;2022-12-18T00:48:42;28.10;;;10.30;;
74789;SDS011;63318;52.406;13.416;2022-12-18T00:51:10;31.00;;;10.70;;
74789;SDS011;63318;52.406;13.416;2022-12-18T00:53:38;29.80;;;10.20;;
74789;SDS011;63318;52.406;13.416;2022-12-18T00:56:07;28.10;;;8.80;;
74789;SDS011;63318;52.406;13.416;2022-12-18T00:58:35;23.60;;;8.20;;
74789;SDS011;63318;52.406;13.416;2022-12-18T01:01:04;21.30;;;8.70;;
74789;SDS011;63318;52.406;13.416;2022-12-18T01:03:33;25.30;;;8.30;;
74789;SDS011;63318;52.406;13.416;2022-12-18T01:06:06;28.90;;;9.90;;
74789;SDS011;63318;52.406;13.416;2022-12-18T01:08:35;33.30;;;10.00;;
74789;SDS011;63318;52.406;13.416;2022-12-18T01:11:08;27.90;;;9.60;;
74789;SDS011;63318;52.406;13.416;2022-12-18T01:13:37;26.30;;;10.10;;
74789;SDS011;63318;52.406;13.416;2022-12-18T01:16:06;26.20;;;9.40;;
74789;SDS011;63318;52.406;13.416;2022-12-18T01:18:37;28.50;;;9.70;;
74789;SDS011;63318;52.406;13.416;2022-12-18T01:21:07;34.40;;;10.60;;
74789;SDS011;63318;52.406;13.416;2022-12-18T01:23:37;28.60;;;9.30;;
74789;SDS011;63318;52.406;13.416;2022-12-18T01:26:06;29.50;;;10.00;;
74789;SDS011;63318;52.406;13.416;2022-12-18T01:28:35;27.50;;;9.90;;
74789;SDS011;63318;52.406;13.416;2022-12-18T01:31:12;27.10;;;9.30;;
74789;SDS011;63318;52.406;13.416;2022-12-18T01:33:42;29.00;;;10.50;;
74789;SDS011;63318;52.406;13.416;2022-12-18T01:36:15;31.30;;;10.90;;
74789;SDS011;63318;52.406;13.416;2022-12-18T01:38:48;31.60;;;9.90;;
74789;SDS011;63318;52.406;13.416;2022-12-18T01:41:18;38.00;;;12.20;;
74789;SDS011;63318;52.406;13.416;2022-12-18T01:43:52;39.20;;;11.90;;
74789;SDS011;63318;52.406;13.416;2022-12-18T01:46:21;29.80;;;11.60;;
74789;SDS011;63318;52.406;13.416;2022-12-18T01:48:52;42.60;;;11.90;;
74789;SDS011;63318;52.406;13.416;2022-12-18T01:51:24;29.90;;;9.60;;
74789;SDS011;63318;52.406;13.416;2022-12-18T01:53:54;30.20;;;9.60;;
74789;SDS011;63318;52.406;13.416;2022-12-18T01:56:23;32.00;;;11.80;;
74789;SDS011;63318;52.406;13.416;2022-12-18T01:58:54;28.40;;;10.80;;
74789;SDS011;63318;52.406;13.416;2022-12-18T02:01:28;33.20;;;9.40;;
74789;SDS011;63318;52.406;13.416;2022-12-18T02:04:10;38.10;;;10.70;;
74789;SDS011;63318;52.406;13.416;2022-12-18T02:06:47;39.80;;;10.70;;
74789;SDS011;63318;52.406;13.416;2022-12-18T02:09:22;20.00;;;6.60;;
74789;SDS011;63318;52.406;13.416;2022-12-18T02:11:56;31.00;;;10.80;;
74789;SDS011;63318;52.406;13.416;2022-12-18T02:14:33;44.60;;;13.50;;
74789;SDS011;63318;52.406;13.416;2022-12-18T02:17:10;42.20;;;13.60;;
74789;SDS011;63318;52.406;13.416;2022-12-18T02:19:50;43.60;;;13.00;;
74789;SDS011;63318;52.406;13.416;2022-12-18T02:22:32;39.10;;;12.40;;
74789;SDS011;63318;52.406;13.416;2022-12-18T02:25:12;42.40;;;12.40;;
74789;SDS011;63318;52.406;13.416;2022-12-18T02:27:47;42.30;;;13.20;;
74789;SDS011;63318;52.406;13.416;2022-12-18T02:30:17;41.80;;;12.10;;
74789;SDS011;63318;52.406;13.416;2022-12-18T02:32:48;43.90;;;11.40;;
74789;SDS011;63318;52.406;13.416;2022-12-18T02:35:20;40.90;;;12.40;;
74789;SDS011;63318;52.406;13.416;2022-12-18T02:37:52;43.60;;;14.10;;
74789;SDS011;63318;52.406;13.416;2022-12-18T02:40:22;45.00;;;13.70;;
74789;SDS011;63318;52.406;13.416;2022-12-18T02:42:53;44.90;;;13.70;;
74789;SDS011;63318;52.406;13.416;2022-12-18T02:45:22;42.50;;;14.20;;
74789;SDS011;63318;52.406;13.416;2022-12-18T02:47:50;45.30;;;15.80;;
74789;SDS011;63318;52.406;13.416;2022-12-18T02:50:21;45.30;;;13.70;;
74789;SDS011;63318;52.406;13.416;2022-12-18T02:52:59;37.20;;;11.60;;
74789;SDS011;63318;52.406;13.416;2022-12-18T02:55:38;42.10;;;12.70;;
74789;SDS011;63318;52.406;13.416;2022-12-18T02:58:17;42.20;;;12.90;;
74789;SDS011;63318;52.406;13.416;2022-12-18T03:00:51;46.20;;;12.50;;
74789;SDS011;63318;52.406;13.416;2022-12-18T03:03:26;42.50;;;12.70;;
74789;SDS011;63318;52.406;13.416;2022-12-18T03:05:56;34.10;;;11.00;;
74789;SDS011;63318;52.406;13.416;2022-12-18T03:08:29;40.40;;;13.60;;
74789;SDS011;63318;52.406;13.416;2022-12-18T03:11:01;39.60;;;12.80;;
74789;SDS011;63318;52.406;13.416;2022-12-18T03:13:32;51.40;;;15.50;;
74789;SDS011;63318;52.406;13.416;2022-12-18T03:16:05;36.20;;;13.50;;
74789;SDS011;63318;52.406;13.416;2022-12-18T03:18:37;48.70;;;14.30;;
74789;SDS011;63318;52.406;13.416;2022-12-18T03:21:09;42.50;;;13.20;;
74789;SDS011;63318;52.406;13.416;2022-12-18T03:23:42;37.20;;;14.20;;
74789;SDS011;63318;52.406;13.416;2022-12-18T03:26:15;54.40;;;16.60;;
74789;SDS011;63318;52.406;13.416;2022-12-18T03:28:49;50.50;;;14.40;;
74789;SDS011;63318;52.406;13.416;2022-12-18T03:31:20;39.40;;;13.80;;
74789;SDS011;63318;52.406;13.416;2022-12-18T03:33:52;47.50;;;13.80;;
74789;SDS011;63318;52.406;13.416;2022-12-18T03:36:23;48.80;;;14.30;;
74789;SDS011;63318;52.406;13.416;2022-12-18T03:38:52;41.60;;;14.10;;
74789;SDS011;63318;52.406;13.416;2022-12-18T03:41:22;49.10;;;13.90;;
74789;SDS011;63318;52.406;13.416;2022-12-18T03:43:59;45.90;;;13.40;;
74789;SDS011;63318;52.406;13.416;2022-12-18T03:46:36;42.00;;;13.20;;
74789;SDS011;63318;52.406;13.416;2022-12-18T03:49:12;45.30;;;14.10;;
74789;SDS011;63318;52.406;13.416;2022-12-18T03:51:48;41.20;;;12.80;;
74789;SDS011;63318;52.406;13.416;2022-12-18T03:54:21;36.30;;;12.60;;
74789;SDS011;63318;52.406;13.416;2022-12-18T03:56:53;39.00;;;12.90;;
74789;SDS011;63318;52.406;13.416;2022-12-18T03:59:25;42.30;;;12.80;;
74789;SDS011;63318;52.406;13.416;2022-12-18T04:01:56;38.40;;;11.30;;
74789;SDS011;63318;52.406;13.416;2022-12-18T04:04:26;34.80;;;11.70;;
74789;SDS011;63318;52.406;13.416;2022-12-18T04:06:57;36.20;;;11.10;;
74789;SDS011;63318;52.406;13.416;2022-12-18T04:09:26;32.30;;;10.90;;
74789;SDS011;63318;52.406;13.416;2022-12-18T04:11:56;33.50;;;9.90;;
74789;SDS011;63318;52.406;13.416;2022-12-18T04:14:24;29.40;;;10.10;;
74789;SDS011;63318;52.406;13.416;2022-12-18T04:16:53;31.30;;;10.10;;
74789;SDS011;63318;52.406;13.416;2022-12-18T04:19:21;32.60;;;9.70;;
74789;SDS011;63318;52.406;13.416;2022-12-18T04:21:49;33.40;;;11.20;;
74789;SDS011;63318;52.406;13.416;2022-12-18T04:24:17;33.30;;;11.40;;
74789;SDS011;63318;52.406;13.416;2022-12-18T04:26:46;33.40;;;10.60;;
74789;SDS011;63318;52.406;13.416;2022-12-18T04:29:14;29.60;;;9.70;;
74789;SDS011;63318;52.406;13.416;2022-12-18T04:31:42;31.40;;;10.60;;
74789;SDS011;63318;52.406;13.416;2022-12-18T04:34:11;32.30;;;9.70;;
74789;SDS011;63318;52.406;13.416;2022-12-18T04:36:39;28.80;;;11.10;;
74789;SDS011;63318;52.406;13.416;2022-12-18T04:39:07;30.00;;;9.40;;
74789;SDS011;63318;52.406;13.416;2022-12-18T04:41:35;35.00;;;10.60;;
74789;SDS011;63318;52.406;13.416;2022-12-18T04:44:04;29.20;;;9.30;;
74789;SDS011;63318;52.406;13.416;2022-12-18T04:46:32;37.30;;;10.80;;
74789;SDS011;63318;52.406;13.416;2022-12-18T04:49:00;29.20;;;10.30;;
74789;SDS011;63318;52.406;13.416;2022-12-18T04:51:29;28.90;;;10.40;;
74789;SDS011;63318;52.406;13.416;2022-12-18T04:53:57;32.30;;;9.30;;
74789;SDS011;63318;52.406;13.416;2022-12-18T04:56:25;28.50;;;9.80;;
74789;SDS011;63318;52.406;13.416;2022-12-18T04:58:54;34.40;;;10.30;;
74789;SDS011;63318;52.406;13.416;2022-12-18T05:01:22;30.70;;;10.80;;
74789;SDS011;63318;52.406;13.416;2022-12-18T05:03:50;28.40;;;10.80;;
74789;SDS011;63318;52.406;13.416;2022-12-18T05:06:19;28.80;;;10.20;;
74789;SDS011;63318;52.406;13.416;2022-12-18T05:08:47;30.20;;;10.60;;
74789;SDS011;63318;52.406;13.416;2022-12-18T05:11:15;35.40;;;11.80;;
74789;SDS011;63318;52.406;13.416;2022-12-18T05:13:44;35.20;;;11.20;;
74789;SDS011;63318;52.406;13.416;2022-12-18T05:16:12;34.90;;;10.60;;
74789;SDS011;63318;52.406;13.416;2022-12-18T05:18:41;32.60;;;10.40;;
74789;SDS011;63318;52.406;13.416;2022-12-18T05:21:09;41.00;;;12.50;;
74789;SDS011;63318;52.406;13.416;2022-12-18T05:23:37;31.50;;;10.30;;
74789;SDS011;63318;52.406;13.416;2022-12-18T05:26:06;35.90;;;11.50;;
74789;SDS011;63318;52.406;13.416;2022-12-18T05:28:35;35.40;;;12.10;;
74789;SDS011;63318;52.406;13.416;2022-12-18T05:31:04;33.40;;;10.30;;
74789;SDS011;63318;52.406;13.416;2022-12-18T05:33:33;35.60;;;12.10;;
74789;SDS011;63318;52.406;13.416;2022-12-18T05:36:02;41.20;;;12.30;;
74789;SDS011;63318;52.406;13.416;2022-12-18T05:38:33;37.40;;;12.30;;
74789;SDS011;63318;52.406;13.416;2022-12-18T05:41:02;40.10;;;13.20;;
74789;SDS011;63318;52.406;13.416;2022-12-18T05:43:32;38.50;;;12.90;;
74789;SDS011;63318;52.406;13.416;2022-12-18T05:46:04;35.40;;;12.20;;
74789;SDS011;63318;52.406;13.416;2022-12-18T05:48:33;34.80;;;13.30;;
74789;SDS011;63318;52.406;13.416;2022-12-18T05:51:05;40.80;;;13.00;;
74789;SDS011;63318;52.406;13.416;2022-12-18T05:53:36;33.30;;;11.90;;
74789;SDS011;63318;52.406;13.416;2022-12-18T05:56:05;38.80;;;11.70;;
74789;SDS011;63318;52.406;13.416;2022-12-18T05:58:35;40.80;;;13.70;;
74789;SDS011;63318;52.406;13.416;2022-12-18T06:01:07;28.90;;;10.70;;
74789;SDS011;63318;52.406;13.416;2022-12-18T06:03:37;33.50;;;10.70;;
74789;SDS011;63318;52.406;13.416;2022-12-18T06:06:11;27.80;;;9.60;;
74789;SDS011;63318;52.406;13.416;2022-12-18T06:08:40;36.90;;;11.80;;
74789;SDS011;63318;52.406;13.416;2022-12-18T06:11:09;37.90;;;12.50;;
74789;SDS011;63318;52.406;13.416;2022-12-18T06:13:37;33.00;;;11.70;;
74789;SDS011;63318;52.406;13.416;2022-12-18T06:16:06;36.40;;;11.00;;
74789;SDS011;63318;52.406;13.416;2022-12-18T06:18:35;31.50;;;10.90;;
74789;SDS011;63318;52.406;13.416;2022-12-18T06:21:03;31.50;;;11.20;;
74789;SDS011;63318;52.406;13.416;2022-12-18T06:23:31;38.70;;;12.60;;
74789;SDS011;63318;52.406;13.416;2022-12-18T06:26:02;33.20;;;11.40;;
74789;SDS011;63318;52.406;13.416;2022-12-18T06:28:32;31.70;;;10.90;;
74789;SDS011;63318;52.406;13.416;2022-12-18T06:31:00;32.80;;;10.90;;
74789;SDS011;63318;52.406;13.416;2022-12-18T06:33:28;29.80;;;9.90;;
74789;SDS011;63318;52.406;13.416;2022-12-18T06:36:00;35.70;;;10.90;;
74789;SDS011;63318;52.406;13.416;2022-12-18T06:38:29;38.60;;;11.60;;
74789;SDS011;63318;52.406;13.416;2022-12-18T06:41:00;30.20;;;12.00;;
74789;SDS011;63318;52.406;13.416;2022-12-18T06:43:32;34.30;;;11.70;;
74789;SDS011;63318;52.406;13.416;2022-12-18T06:46:00;38.40;;;12.20;;
74789;SDS011;63318;52.406;13.416;2022-12-18T06:48:29;41.60;;;12.20;;
74789;SDS011;63318;52.406;13.416;2022-12-18T06:50:58;32.50;;;9.80;;
74789;SDS011;63318;52.406;13.416;2022-12-18T06:53:27;33.50;;;10.10;;
74789;SDS011;63318;52.406;13.416;2022-12-18T06:56:00;31.80;;;10.80;;
74789;SDS011;63318;52.406;13.416;2022-12-18T06:58:30;30.60;;;9.70;;
74789;SDS011;63318;52.406;13.416;2022-12-18T07:01:00;29.10;;;10.10;;
74789;SDS011;63318;52.406;13.416;2022-12-18T07:03:30;28.60;;;9.30;;
74789;SDS011;63318;52.406;13.416;2022-12-18T07:05:59;30.70;;;10.60;;
74789;SDS011;63318;52.406;13.416;2022-12-18T07:08:27;35.00;;;11.40;;
74789;SDS011;63318;52.406;13.416;2022-12-18T07:10:56;31.00;;;10.60;;
74789;SDS011;63318;52.406;13.416;2022-12-18T07:13:25;29.80;;;9.70;;
74789;SDS011;63318;52.406;13.416;2022-12-18T07:15:53;27.70;;;9.90;;
74789;SDS011;63318;52.406;13.416;2022-12-18T07:18:21;27.60;;;10.40;;
74789;SDS011;63318;52.406;13.416;2022-12-18T07:20:49;29.00;;;10.90;;
74789;SDS011;63318;52.406;13.416;2022-12-18T07:23:18;31.70;;;11.40;;
74789;SDS011;63318;52.406;13.416;2022-12-18T07:25:46;34.80;;;10.10;;
74789;SDS011;63318;52.406;13.416;2022-12-18T07:28:14;36.00;;;11.90;;
74789;SDS011;63318;52.406;13.416;2022-12-18T07:30:43;35.20;;;10.90;;
74789;SDS011;63318;52.406;13.416;2022-12-18T07:33:11;33.30;;;11.40;;
74789;SDS011;63318;52.406;13.416;2022-12-18T07:35:39;30.00;;;11.90;;
74789;SDS011;63318;52.406;13.416;2022-12-18T07:38:07;28.20;;;9.80;;
74789;SDS011;63318;52.406;13.416;2022-12-18T07:40:36;25.40;;;9.40;;
74789;SDS011;63318;52.406;13.416;2022-12-18T07:43:04;33.20;;;10.70;;
74789;SDS011;63318;52.406;13.416;2022-12-18T07:45:32;30.40;;;10.00;;
74789;SDS011;63318;52.406;13.416;2022-12-18T07:48:00;30.10;;;11.10;;
74789;SDS011;63318;52.406;13.416;2022-12-18T07:50:29;33.60;;;11.40;;
74789;SDS011;63318;52.406;13.416;2022-12-18T07:52:57;32.70;;;10.50;;
74789;SDS011;63318;52.406;13.416;2022-12-18T07:55:25;39.50;;;11.00;;
74789;SDS011;63318;52.406;13.416;2022-12-18T07:57:53;36.40;;;11.50;;
74789;SDS011;63318;52.406;13.416;2022-12-18T08:00:22;36.10;;;10.30;;
74789;SDS011;63318;52.406;13.416;2022-12-18T08:02:50;38.40;;;11.80;;
74789;SDS011;63318;52.406;13.416;2022-12-18T08:05:18;33.70;;;11.70;;
74789;SDS011;63318;52.406;13.416;2022-12-18T08:07:47;41.00;;;12.10;;
74789;SDS011;63318;52.406;13.416;2022-12-18T08:10:15;41.40;;;11.40;;
74789;SDS011;63318;52.406;13.416;2022-12-18T08:12:45;32.60;;;10.70;;
74789;SDS011;63318;52.406;13.416;2022-12-18T08:15:15;35.30;;;11.10;;
74789;SDS011;63318;52.406;13.416;2022-12-18T08:17:43;31.10;;;11.10;;
74789;SDS011;63318;52.406;13.416;2022-12-18T08:20:12;36.00;;;9.60;;
74789;SDS011;63318;52.406;13.416;2022-12-18T08:22:40;34.40;;;9.80;;
74789;SDS011;63318;52.406;13.416;2022-12-18T08:25:09;34.60;;;11.10;;
74789;SDS011;63318;52.406;13.416;2022-12-18T08:27:37;41.80;;;12.70;;
74789;SDS011;63318;52.406;13.416;2022-12-18T08:30:06;34.70;;;12.20;;
74789;SDS011;63318;52.406;13.416;2022-12-18T08:32:36;37.20;;;11.60;;
74789;SDS011;63318;52.406;13.416;2022-12-18T08:35:05;33.40;;;10.80;;
74789;SDS011;63318;52.406;13.416;2022-12-18T08:37:35;35.70;;;10.90;;
74789;SDS011;63318;52.406;13.416;2022-12-18T08:40:04;32.00;;;10.60;;
74789;SDS011;63318;52.406;13.416;2022-12-18T08:42:34;30.40;;;9.70;;
74789;SDS011;63318;52.406;13.416;2022-12-18T08:45:02;24.50;;;9.50;;
74789;SDS011;63318;52.406;13.416;2022-12-18T08:47:31;29.90;;;10.10;;
74789;SDS011;63318;52.406;13.416;2022-12-18T08:50:00;37.80;;;11.00;;
74789;SDS011;63318;52.406;13.416;2022-12-18T08:52:28;25.70;;;8.70;;
74789;SDS011;63318;52.406;13.416;2022-12-18T08:54:59;30.20;;;11.60;;
74789;SDS011;63318;52.406;13.416;2022-12-18T08:57:27;25.50;;;9.60;;
74789;SDS011;63318;52.406;13.416;2022-12-18T08:59:55;27.30;;;9.60;;
74789;SDS011;63318;52.406;13.416;2022-12-18T09:02:24;26.70;;;8.50;;
74789;SDS011;63318;52.406;13.416;2022-12-18T09:04:53;29.10;;;10.90;;
74789;SDS011;63318;52.406;13.416;2022-12-18T09:07:23;29.80;;;9.30;;
74789;SDS011;63318;52.406;13.416;2022-12-18T09:09:52;28.70;;;9.90;;
74789;SDS011;63318;52.406;13.416;2022-12-18T09:12:20;32.90;;;10.20;;
74789;SDS011;63318;52.406;13.416;2022-12-18T09:14:49;29.40;;;9.80;;
74789;SDS011;63318;52.406;13.416;2022-12-18T09:17:17;29.60;;;10.10;;
74789;SDS011;63318;52.406;13.416;2022-12-18T09:19:48;33.70;;;10.30;;
74789;SDS011;63318;52.406;13.416;2022-12-18T09:22:16;26.00;;;9.10;;
74789;SDS011;63318;52.406;13.416;2022-12-18T09:24:44;31.80;;;9.90;;
74789;SDS011;63318;52.406;13.416;2022-12-18T09:27:12;29.50;;;9.30;;
74789;SDS011;63318;52.406;13.416;2022-12-18T09:29:41;33.20;;;10.80;;
74789;SDS011;63318;52.406;13.416;2022-12-18T09:32:10;23.10;;;8.70;;
74789;SDS011;63318;52.406;13.416;2022-12-18T09:34:38;20.20;;;6.90;;
74789;SDS011;63318;52.406;13.416;2022-12-18T09:37:07;25.40;;;8.70;;
74789;SDS011;63318;52.406;13.416;2022-12-18T09:39:35;27.10;;;9.60;;
74789;SDS011;63318;52.406;13.416;2022-12-18T09:42:04;30.90;;;9.00;;
74789;SDS011;63318;52.406;13.416;2022-12-18T09:44:41;30.10;;;9.60;;
74789;SDS011;63318;52.406;13.416;2022-12-18T09:47:16;27.40;;;8.70;;
74789;SDS011;63318;52.406;13.416;2022-12-18T09:49:49;24.20;;;8.50;;
74789;SDS011;63318;52.406;13.416;2022-12-18T09:52:21;28.00;;;9.70;;
74789;SDS011;63318;52.406;13.416;2022-12-18T09:54:58;29.00;;;8.70;;
74789;SDS011;63318;52.406;13.416;2022-12-18T09:57:32;28.20;;;9.50;;
74789;SDS011;63318;52.406;13.416;2022-12-18T10:00:05;28.80;;;8.40;;
74789;SDS011;63318;52.406;13.416;2022-12-18T10:02:41;31.80;;;9.40;;
74789;SDS011;63318;52.406;13.416;2022-12-18T10:05:14;27.10;;;9.30;;
74789;SDS011;63318;52.406;13.416;2022-12-18T10:07:53;29.60;;;9.90;;
74789;SDS011;63318;52.406;13.416;2022-12-18T10:10:30;34.90;;;10.30;;
74789;SDS011;63318;52.406;13.416;2022-12-18T10:13:07;31.40;;;9.80;;
74789;SDS011;63318;52.406;13.416;2022-12-18T10:15:45;31.50;;;10.90;;
74789;SDS011;63318;52.406;13.416;2022-12-18T10:18:23;34.20;;;11.50;;
74789;SDS011;63318;52.406;13.416;2022-12-18T10:21:09;29.80;;;10.00;;
74789;SDS011;63318;52.406;13.416;2022-12-18T10:23:43;29.60;;;9.20;;
74789;SDS011;63318;52.406;13.416;2022-12-18T10:26:19;33.90;;;11.80;;
74789;SDS011;63318;52.406;13.416;2022-12-18T10:28:48;30.00;;;10.40;;
74789;SDS011;63318;52.406;13.416;2022-12-18T10:31:18;28.40;;;10.00;;
74789;SDS011;63318;52.406;13.416;2022-12-18T10:33:48;33.30;;;10.90;;
74789;SDS011;63318;52.406;13.416;2022-12-18T10:36:16;30.60;;;10.60;;
74789;SDS011;63318;52.406;13.416;2022-12-18T10:38:45;32.20;;;10.80;;
74789;SDS011;63318;52.406;13.416;2022-12-18T10:41:24;32.10;;;10.00;;
74789;SDS011;63318;52.406;13.416;2022-12-18T10:44:11;31.80;;;10.40;;
74789;SDS011;63318;52.406;13.416;2022-12-18T10:46:43;32.40;;;11.60;;
74789;SDS011;63318;52.406;13.416;2022-12-18T10:49:21;32.10;;;10.40;;
74789;SDS011;63318;52.406;13.416;2022-12-18T10:51:51;30.60;;;10.10;;
74789;SDS011;63318;52.406;13.416;2022-12-18T10:54:34;29.60;;;10.40;;
74789;SDS011;63318;52.406;13.416;2022-12-18T10:57:29;30.30;;;9.70;;
74789;SDS011;63318;52.406;13.416;2022-12-18T11:00:05;26.90;;;9.20;;
74789;SDS011;63318;52.406;13.416;2022-12-18T11:02:49;31.20;;;10.10;;
74789;SDS011;63318;52.406;13.416;2022-12-18T11:05:29;23.30;;;9.30;;
74789;SDS011;63318;52.406;13.416;2022-12-18T11:07:59;31.10;;;9.90;;
74789;SDS011;63318;52.406;13.416;2022-12-18T11:10:30;33.40;;;9.20;;
74789;SDS011;63318;52.406;13.416;2022-12-18T11:13:10;31.90;;;10.30;;
74789;SDS011;63318;52.406;13.416;2022-12-18T11:15:43;33.80;;;10.10;;
74789;SDS011;63318;52.406;13.416;2022-12-18T11:18:18;32.90;;;10.30;;
74789;SDS011;63318;52.406;13.416;2022-12-18T11:20:53;28.70;;;10.20;;
74789;SDS011;63318;52.406;13.416;2022-12-18T11:23:25;33.70;;;9.90;;
74789;SDS011;63318;52.406;13.416;2022-12-18T11:25:55;34.00;;;10.10;;
74789;SDS011;63318;52.406;13.416;2022-12-18T11:28:27;29.60;;;10.00;;
74789;SDS011;63318;52.406;13.416;2022-12-18T11:33:57;30.30;;;9.60;;
74789;SDS011;63318;52.406;13.416;2022-12-18T11:36:31;32.20;;;9.80;;
74789;SDS011;63318;52.406;13.416;2022-12-18T11:39:05;26.90;;;9.10;;
74789;SDS011;63318;52.406;13.416;2022-12-18T11:41:46;26.50;;;9.90;;
74789;SDS011;63318;52.406;13.416;2022-12-18T11:44:23;25.50;;;8.30;;
74789;SDS011;63318;52.406;13.416;2022-12-18T11:46:56;30.90;;;8.50;;
74789;SDS011;63318;52.406;13.416;2022-12-18T11:49:34;29.00;;;9.90;;
74789;SDS011;63318;52.406;13.416;2022-12-18T11:52:09;29.00;;;10.00;;
74789;SDS011;63318;52.406;13.416;2022-12-18T11:54:42;27.10;;;8.00;;
74789;SDS011;63318;52.406;13.416;2022-12-18T11:57:13;25.20;;;9.20;;
74789;SDS011;63318;52.406;13.416;2022-12-18T11:59:51;28.40;;;9.10;;
74789;SDS011;63318;52.406;13.416;2022-12-18T12:02:32;24.00;;;9.30;;
74789;SDS011;63318;52.406;13.416;2022-12-18T12:05:14;26.00;;;10.70;;
74789;SDS011;63318;52.406;13.416;2022-12-18T12:07:55;26.40;;;8.80;;
74789;SDS011;63318;52.406;13.416;2022-12-18T12:10:36;26.00;;;9.20;;
74789;SDS011;63318;52.406;13.416;2022-12-18T12:13:19;30.80;;;8.90;;
74789;SDS011;63318;52.406;13.416;2022-12-18T12:15:58;28.50;;;10.40;;
74789;SDS011;63318;52.406;13.416;2022-12-18T12:18:40;26.00;;;10.10;;
74789;SDS011;63318;52.406;13.416;2022-12-18T12:21:15;26.40;;;9.50;;
74789;SDS011;63318;52.406;13.416;2022-12-18T12:23:51;21.30;;;9.20;;
74789;SDS011;63318;52.406;13.416;2022-12-18T12:26:26;25.30;;;8.60;;
74789;SDS011;63318;52.406;13.416;2022-12-18T12:29:09;22.50;;;9.10;;
74789;SDS011;63318;52.406;13.416;2022-12-18T12:31:51;25.70;;;10.00;;
74789;SDS011;63318;52.406;13.416;2022-12-18T12:34:33;32.30;;;9.50;;
74789;SDS011;63318;52.406;13.416;2022-12-18T12:49:15;29.20;;;10.00;;
74789;SDS011;63318;52.406;13.416;2022-12-18T12:51:47;21.70;;;8.90;;
74789;SDS011;63318;52.406;13.416;2022-12-18T12:54:23;26.40;;;10.50;;
74789;SDS011;63318;52.406;13.416;2022-12-18T12:56:54;22.20;;;8.90;;
74789;SDS011;63318;52.406;13.416;2022-12-18T12:59:30;23.40;;;9.80;;
74789;SDS011;63318;52.406;13.416;2022-12-18T13:02:05;24.00;;;8.90;;
74789;SDS011;63318;52.406;13.416;2022-12-18T13:04:42;24.10;;;9.30;;
74789;SDS011;63318;52.406;13.416;2022-12-18T13:07:18;17.80;;;7.40;;
74789;SDS011;63318;52.406;13.416;2022-12-18T13:12:55;24.80;;;9.20;;
74789;SDS011;63318;52.406;13.416;2022-12-18T13:15:26;23.80;;;8.70;;
74789;SDS011;63318;52.406;13.416;2022-12-18T13:20:46;16.50;;;6.60;;
74789;SDS011;63318;52.406;13.416;2022-12-18T13:23:27;18.60;;;7.10;;
74789;SDS011;63318;52.406;13.416;2022-12-18T13:25:58;17.20;;;6.90;;
74789;SDS011;63318;52.406;13.416;2022-12-18T13:28:53;32.20;;;11.80;;
74789;SDS011;63318;52.406;13.416;2022-12-18T13:34:33;32.10;;;12.50;;
74789;SDS011;63318;52.406;13.416;2022-12-18T13:40:09;36.40;;;13.60;;
74789;SDS011;63318;52.406;13.416;2022-12-18T13:43:26;34.80;;;12.80;;
74789;SDS011;63318;52.406;13.416;2022-12-18T13:46:01;34.50;;;12.90;;
74789;SDS011;63318;52.406;13.416;2022-12-18T13:48:33;35.80;;;13.40;;
74789;SDS011;63318;52.406;13.416;2022-12-18T13:51:05;32.40;;;11.40;;
74789;SDS011;63318;52.406;13.416;2022-12-18T13:53:37;35.20;;;13.10;;
74789;SDS011;63318;52.406;13.416;2022-12-18T13:56:10;30.70;;;11.40;;
74789;SDS011;63318;52.406;13.416;2022-12-18T13:58:44;36.70;;;14.00;;
74789;SDS011;63318;52.406;13.416;2022-12-18T14:01:22;38.80;;;14.90;;
74789;SDS011;63318;52.406;13.416;2022-12-18T14:03:51;38.80;;;15.10;;
74789;SDS011;63318;52.406;13.416;2022-12-18T14:06:34;33.20;;;11.50;;
74789;SDS011;63318;52.406;13.416;2022-12-18T14:09:04;35.80;;;13.90;;
74789;SDS011;63318;52.406;13.416;2022-12-18T14:11:32;36.20;;;13.10;;
74789;SDS011;63318;52.406;13.416;2022-12-18T14:14:01;25.90;;;10.10;;
74789;SDS011;63318;52.406;13.416;2022-12-18T14:16:29;24.90;;;9.80;;
74789;SDS011;63318;52.406;13.416;2022-12-18T14:18:58;27.20;;;10.50;;
74789;SDS011;63318;52.406;13.416;2022-12-18T14:21:27;23.70;;;10.20;;
74789;SDS011;63318;52.406;13.416;2022-12-18T14:24:11;27.40;;;10.30;;
74789;SDS011;63318;52.406;13.416;2022-12-18T14:26:41;35.30;;;12.70;;
74789;SDS011;63318;52.406;13.416;2022-12-18T14:29:20;39.60;;;13.50;;
74789;SDS011;63318;52.406;13.416;2022-12-18T14:32:11;39.20;;;13.40;;
74789;SDS011;63318;52.406;13.416;2022-12-18T14:37:10;32.10;;;15.00;;
74789;SDS011;63318;52.406;13.416;2022-12-18T14:39:40;29.20;;;11.70;;
74789;SDS011;63318;52.406;13.416;2022-12-18T14:42:17;34.50;;;13.20;;
74789;SDS011;63318;52.406;13.416;2022-12-18T14:44:46;30.50;;;12.20;;
74789;SDS011;63318;52.406;13.416;2022-12-18T14:47:15;32.50;;;12.20;;
74789;SDS011;63318;52.406;13.416;2022-12-18T14:49:51;26.70;;;10.70;;
74789;SDS011;63318;52.406;13.416;2022-12-18T14:52:21;23.80;;;9.40;;
74789;SDS011;63318;52.406;13.416;2022-12-18T14:54:53;20.70;;;9.10;;
74789;SDS011;63318;52.406;13.416;2022-12-18T14:57:22;20.50;;;9.10;;
74789;SDS011;63318;52.406;13.416;2022-12-18T14:59:55;21.00;;;8.50;;
74789;SDS011;63318;52.406;13.416;2022-12-18T15:02:34;13.60;;;6.70;;
74789;SDS011;63318;52.406;13.416;2022-12-18T15:05:04;24.00;;;10.50;;
74789;SDS011;63318;52.406;13.416;2022-12-18T15:07:44;19.30;;;8.80;;
74789;SDS011;63318;52.406;13.416;2022-12-18T15:10:14;17.20;;;7.40;;